sensor_id;sensor_type;location;lat;lon;timestamp;pressure;altitude;pressure_sealevel;temperature;humidity
14818;BME280;7500;57.698;11.986;2022-09-20T00:01:26;101666.28;;;15.07;100.00
14818;BME280;7500;57.698;11.986;2022-09-20T00:03:55;101670.88;;;15.03;100.00
14818;BME280;7500;57.698;11.986;2022-09-20T00:06:25;101648.56;;;14.75;100.00
14818;BME280;7500;57.698;11.986;2022-09-20T00:08:52;101665.19;;;14.78;100.00
14818;BME280;7500;57.698;11.986;2022-09-20T00:11:21;101668.38;;;14.85;100.00
14818;BME280;7500;57.698;11.986;2022-09-20T00:13:58;101671.63;;;14.90;100.00
14818;BME280;7500;57.698;11.986;2022-09-20T00:16:28;101669.50;;;14.96;100.00
14818;BME280;7500;57.698;11.986;2022-09-20T00:18:57;101685.13;;;15.02;100.00
14818;BME280;7500;57.698;11.986;2022-09-20T00:21:26;101674.47;;;15.02;100.00
14818;BME280;7500;57.698;11.986;2022-09-20T00:23:54;101679.91;;;15.16;100.00
14818;BME280;7500;57.698;11.986;2022-09-20T00:26:22;101688.34;;;15.24;100.00
14818;BME280;7500;57.698;11.986;2022-09-20T00:28:49;101689.69;;;15.16;100.00
14818;BME280;7500;57.698;11.986;2022-09-20T00:31:17;101695.94;;;15.15;100.00
14818;BME280;7500;57.698;11.986;2022-09-20T00:33:45;101697.47;;;15.03;100.00
14818;BME280;7500;57.698;11.986;2022-09-20T00:36:29;101677.72;;;14.76;100.00
14818;BME280;7500;57.698;11.986;2022-09-20T00:38:57;101690.88;;;14.95;100.00
14818;BME280;7500;57.698;11.986;2022-09-20T00:41:25;101696.44;;;14.90;100.00
14818;BME280;7500;57.698;11.986;2022-09-20T00:43:52;101701.94;;;14.87;100.00
14818;BME280;7500;57.698;11.986;2022-09-20T00:46:25;101680.53;;;14.73;100.00
14818;BME280;7500;57.698;11.986;2022-09-20T00:48:57;101698.66;;;14.82;100.00
14818;BME280;7500;57.698;11.986;2022-09-20T00:51:27;101705.22;;;14.75;100.00
14818;BME280;7500;57.698;11.986;2022-09-20T00:53:56;101709.59;;;14.76;100.00
14818;BME280;7500;57.698;11.986;2022-09-20T00:56:27;101707.09;;;14.73;100.00
14818;BME280;7500;57.698;11.986;2022-09-20T00:59:03;101707.09;;;14.73;100.00
14818;BME280;7500;57.698;11.986;2022-09-20T01:01:33;101707.63;;;14.80;100.00
14818;BME280;7500;57.698;11.986;2022-09-20T01:04:01;101704.72;;;14.69;100.00
14818;BME280;7500;57.698;11.986;2022-09-20T01:06:29;101711.66;;;14.71;100.00
14818;BME280;7500;57.698;11.986;2022-09-20T01:08:58;101713.38;;;14.72;100.00
14818;BME280;7500;57.698;11.986;2022-09-20T01:11:28;101716.81;;;14.74;100.00
14818;BME280;7500;57.698;11.986;2022-09-20T01:13:55;101718.69;;;14.72;100.00
14818;BME280;7500;57.698;11.986;2022-09-20T01:16:23;101722.44;;;14.68;100.00
14818;BME280;7500;57.698;11.986;2022-09-20T01:18:54;101720.09;;;14.63;100.00
14818;BME280;7500;57.698;11.986;2022-09-20T01:21:24;101719.09;;;14.65;100.00
14818;BME280;7500;57.698;11.986;2022-09-20T01:23:59;101726.69;;;14.56;100.00
14818;BME280;7500;57.698;11.986;2022-09-20T01:26:43;101729.88;;;14.45;100.00
14818;BME280;7500;57.698;11.986;2022-09-20T01:29:31;101730.59;;;14.49;100.00
14818;BME280;7500;57.698;11.986;2022-09-20T01:32:03;101723.41;;;14.51;100.00
14818;BME280;7500;57.698;11.986;2022-09-20T01:34:34;101728.09;;;14.46;100.00
14818;BME280;7500;57.698;11.986;2022-09-20T01:37:05;101727.31;;;14.44;100.00
14818;BME280;7500;57.698;11.986;2022-09-20T01:39:40;101725.69;;;14.41;100.00
14818;BME280;7500;57.698;11.986;2022-09-20T01:42:13;101734.44;;;14.43;100.00
14818;BME280;7500;57.698;11.986;2022-09-20T01:44:49;101738.41;;;14.35;100.00
14818;BME280;7500;57.698;11.986;2022-09-20T01:47:28;101737.56;;;14.34;100.00
14818;BME280;7500;57.698;11.986;2022-09-20T01:50:04;101738.34;;;14.36;100.00
14818;BME280;7500;57.698;11.986;2022-09-20T02:07:35;101756.38;;;14.30;100.00
14818;BME280;7500;57.698;11.986;2022-09-20T02:10:17;101750.75;;;14.36;100.00
14818;BME280;7500;57.698;11.986;2022-09-20T02:12:53;101754.59;;;14.30;100.00
14818;BME280;7500;57.698;11.986;2022-09-20T02:15:34;101759.81;;;14.32;100.00
14818;BME280;7500;57.698;11.986;2022-09-20T02:18:15;101762.19;;;14.21;100.00
14818;BME280;7500;57.698;11.986;2022-09-20T02:20:50;101771.78;;;14.23;100.00
14818;BME280;7500;57.698;11.986;2022-09-20T02:23:27;101769.50;;;14.16;100.00
14818;BME280;7500;57.698;11.986;2022-09-20T02:26:07;101772.28;;;14.13;100.00
14818;BME280;7500;57.698;11.986;2022-09-20T02:28:51;101772.03;;;14.00;100.00
14818;BME280;7500;57.698;11.986;2022-09-20T02:31:29;101771.94;;;14.02;100.00
14818;BME280;7500;57.698;11.986;2022-09-20T02:34:16;101774.97;;;13.94;100.00
14818;BME280;7500;57.698;11.986;2022-09-20T02:37:00;101774.53;;;14.03;100.00
14818;BME280;7500;57.698;11.986;2022-09-20T02:39:36;101776.16;;;13.89;100.00
14818;BME280;7500;57.698;11.986;2022-09-20T02:42:12;101782.59;;;13.83;100.00
14818;BME280;7500;57.698;11.986;2022-09-20T02:44:51;101773.84;;;13.81;100.00
14818;BME280;7500;57.698;11.986;2022-09-20T02:47:30;101782.19;;;13.74;100.00
14818;BME280;7500;57.698;11.986;2022-09-20T02:50:10;101788.84;;;13.82;100.00
14818;BME280;7500;57.698;11.986;2022-09-20T02:52:50;101781.59;;;13.86;100.00
14818;BME280;7500;57.698;11.986;2022-09-20T02:55:37;101802.09;;;13.82;100.00
14818;BME280;7500;57.698;11.986;2022-09-20T02:58:24;101804.84;;;13.81;100.00
14818;BME280;7500;57.698;11.986;2022-09-20T03:00:54;101811.31;;;13.75;100.00
14818;BME280;7500;57.698;11.986;2022-09-20T03:03:36;101813.47;;;13.67;100.00
14818;BME280;7500;57.698;11.986;2022-09-20T03:06:08;101807.22;;;13.68;100.00
14818;BME280;7500;57.698;11.986;2022-09-20T03:08:46;101811.00;;;13.63;100.00
14818;BME280;7500;57.698;11.986;2022-09-20T03:11:24;101787.22;;;13.43;100.00
14818;BME280;7500;57.698;11.986;2022-09-20T03:14:10;101808.50;;;13.60;100.00
14818;BME280;7500;57.698;11.986;2022-09-20T03:16:56;101812.44;;;13.70;100.00
14818;BME280;7500;57.698;11.986;2022-09-20T03:19:35;101816.63;;;13.75;100.00
14818;BME280;7500;57.698;11.986;2022-09-20T03:22:18;101817.34;;;13.79;100.00
14818;BME280;7500;57.698;11.986;2022-09-20T03:25:04;101819.28;;;13.75;100.00
14818;BME280;7500;57.698;11.986;2022-09-20T03:27:41;101813.25;;;13.72;100.00
14818;BME280;7500;57.698;11.986;2022-09-20T03:30:23;101811.25;;;13.58;100.00
14818;BME280;7500;57.698;11.986;2022-09-20T03:33:02;101826.09;;;13.62;100.00
14818;BME280;7500;57.698;11.986;2022-09-20T03:35:50;101830.31;;;13.66;100.00
14818;BME280;7500;57.698;11.986;2022-09-20T03:38:38;101830.47;;;13.63;100.00
14818;BME280;7500;57.698;11.986;2022-09-20T03:41:24;101835.69;;;13.65;100.00
14818;BME280;7500;57.698;11.986;2022-09-20T03:44:08;101833.97;;;13.64;100.00
14818;BME280;7500;57.698;11.986;2022-09-20T03:46:43;101841.59;;;13.53;100.00
14818;BME280;7500;57.698;11.986;2022-09-20T03:52:24;101839.41;;;13.61;100.00
14818;BME280;7500;57.698;11.986;2022-09-20T03:55:30;101846.53;;;13.60;100.00
14818;BME280;7500;57.698;11.986;2022-09-20T03:58:20;101846.75;;;13.56;100.00
14818;BME280;7500;57.698;11.986;2022-09-20T04:01:06;101844.44;;;13.49;100.00
14818;BME280;7500;57.698;11.986;2022-09-20T04:03:42;101856.31;;;13.40;100.00
14818;BME280;7500;57.698;11.986;2022-09-20T04:06:44;101854.78;;;13.16;100.00
14818;BME280;7500;57.698;11.986;2022-09-20T04:09:41;101863.63;;;13.35;100.00
14818;BME280;7500;57.698;11.986;2022-09-20T04:12:14;101868.66;;;13.41;100.00
14818;BME280;7500;57.698;11.986;2022-09-20T04:14:52;101867.72;;;13.42;100.00
14818;BME280;7500;57.698;11.986;2022-09-20T04:17:37;101875.00;;;13.57;100.00
14818;BME280;7500;57.698;11.986;2022-09-20T04:20:15;101878.72;;;13.53;100.00
14818;BME280;7500;57.698;11.986;2022-09-20T04:22:45;101885.81;;;13.52;100.00
14818;BME280;7500;57.698;11.986;2022-09-20T04:25:18;101883.66;;;13.42;100.00
14818;BME280;7500;57.698;11.986;2022-09-20T04:27:50;101888.81;;;13.45;100.00
14818;BME280;7500;57.698;11.986;2022-09-20T04:30:22;101891.25;;;13.50;100.00
14818;BME280;7500;57.698;11.986;2022-09-20T04:32:57;101890.41;;;13.49;100.00
14818;BME280;7500;57.698;11.986;2022-09-20T04:35:34;101891.81;;;13.38;100.00
14818;BME280;7500;57.698;11.986;2022-09-20T04:38:20;101891.97;;;13.35;100.00
14818;BME280;7500;57.698;11.986;2022-09-20T04:40:58;101898.78;;;13.40;100.00
14818;BME280;7500;57.698;11.986;2022-09-20T04:43:58;101895.31;;;13.38;100.00
14818;BME280;7500;57.698;11.986;2022-09-20T04:46:52;101891.16;;;13.33;100.00
14818;BME280;7500;57.698;11.986;2022-09-20T04:55:51;101883.31;;;12.91;100.00
14818;BME280;7500;57.698;11.986;2022-09-20T04:58:39;101916.97;;;13.09;100.00
14818;BME280;7500;57.698;11.986;2022-09-20T05:01:56;101916.75;;;13.14;100.00
14818;BME280;7500;57.698;11.986;2022-09-20T05:11:24;101938.97;;;13.31;100.00
14818;BME280;7500;57.698;11.986;2022-09-20T05:14:17;101939.09;;;13.28;100.00
14818;BME280;7500;57.698;11.986;2022-09-20T05:17:02;101933.00;;;13.26;100.00
14818;BME280;7500;57.698;11.986;2022-09-20T05:19:41;101937.78;;;13.18;100.00
14818;BME280;7500;57.698;11.986;2022-09-20T05:25:37;101944.69;;;13.22;100.00
14818;BME280;7500;57.698;11.986;2022-09-20T05:28:12;101944.41;;;13.08;100.00
14818;BME280;7500;57.698;11.986;2022-09-20T05:30:47;101946.53;;;13.20;100.00
14818;BME280;7500;57.698;11.986;2022-09-20T05:33:21;101954.81;;;13.13;100.00
14818;BME280;7500;57.698;11.986;2022-09-20T05:35:59;101952.78;;;13.19;100.00
14818;BME280;7500;57.698;11.986;2022-09-20T05:38:35;101957.19;;;13.19;100.00
14818;BME280;7500;57.698;11.986;2022-09-20T05:41:10;101955.00;;;13.08;100.00
14818;BME280;7500;57.698;11.986;2022-09-20T05:43:49;101958.59;;;13.07;100.00
14818;BME280;7500;57.698;11.986;2022-09-20T05:46:31;101969.75;;;13.15;100.00
14818;BME280;7500;57.698;11.986;2022-09-20T05:49:08;101969.28;;;13.06;100.00
14818;BME280;7500;57.698;11.986;2022-09-20T05:54:58;101977.00;;;12.90;100.00
14818;BME280;7500;57.698;11.986;2022-09-20T05:57:38;101979.66;;;12.89;100.00
14818;BME280;7500;57.698;11.986;2022-09-20T06:00:09;101980.97;;;12.79;100.00
14818;BME280;7500;57.698;11.986;2022-09-20T06:02:45;101991.91;;;12.93;100.00
14818;BME280;7500;57.698;11.986;2022-09-20T06:05:26;101991.09;;;12.91;100.00
14818;BME280;7500;57.698;11.986;2022-09-20T06:08:10;101996.28;;;12.94;100.00
14818;BME280;7500;57.698;11.986;2022-09-20T06:11:01;101987.03;;;13.04;100.00
14818;BME280;7500;57.698;11.986;2022-09-20T06:13:44;101986.81;;;13.08;100.00
14818;BME280;7500;57.698;11.986;2022-09-20T06:16:20;101984.84;;;13.13;100.00
14818;BME280;7500;57.698;11.986;2022-09-20T06:18:59;102000.94;;;13.09;100.00
14818;BME280;7500;57.698;11.986;2022-09-20T06:21:37;102006.44;;;13.04;100.00
14818;BME280;7500;57.698;11.986;2022-09-20T06:24:19;101985.84;;;12.89;100.00
14818;BME280;7500;57.698;11.986;2022-09-20T06:26:50;102009.88;;;13.06;100.00
14818;BME280;7500;57.698;11.986;2022-09-20T06:29:25;102014.16;;;13.10;100.00
14818;BME280;7500;57.698;11.986;2022-09-20T06:31:54;102012.97;;;13.17;100.00
14818;BME280;7500;57.698;11.986;2022-09-20T06:34:21;102017.69;;;13.31;100.00
14818;BME280;7500;57.698;11.986;2022-09-20T06:36:53;102017.47;;;13.35;100.00
14818;BME280;7500;57.698;11.986;2022-09-20T06:39:52;102017.59;;;13.32;100.00
14818;BME280;7500;57.698;11.986;2022-09-20T06:42:39;102024.38;;;13.39;100.00
14818;BME280;7500;57.698;11.986;2022-09-20T06:45:08;102021.19;;;13.31;100.00
14818;BME280;7500;57.698;11.986;2022-09-20T06:47:35;102035.66;;;13.24;100.00
14818;BME280;7500;57.698;11.986;2022-09-20T06:50:02;102033.34;;;13.37;100.00
14818;BME280;7500;57.698;11.986;2022-09-20T06:52:32;102036.84;;;13.37;100.00
14818;BME280;7500;57.698;11.986;2022-09-20T06:55:00;102041.56;;;13.31;100.00
14818;BME280;7500;57.698;11.986;2022-09-20T06:57:34;102041.81;;;13.45;100.00
14818;BME280;7500;57.698;11.986;2022-09-20T07:00:03;102043.41;;;13.49;100.00
14818;BME280;7500;57.698;11.986;2022-09-20T07:02:30;102054.81;;;13.31;100.00
14818;BME280;7500;57.698;11.986;2022-09-20T07:04:57;102050.22;;;13.14;100.00
14818;BME280;7500;57.698;11.986;2022-09-20T07:07:24;102061.91;;;13.30;100.00
14818;BME280;7500;57.698;11.986;2022-09-20T07:09:52;102063.38;;;13.37;100.00
14818;BME280;7500;57.698;11.986;2022-09-20T07:12:19;102064.13;;;13.41;100.00
14818;BME280;7500;57.698;11.986;2022-09-20T07:14:46;102050.53;;;13.48;100.00
14818;BME280;7500;57.698;11.986;2022-09-20T07:17:14;102068.72;;;13.57;100.00
14818;BME280;7500;57.698;11.986;2022-09-20T07:19:41;102058.50;;;13.48;100.00
14818;BME280;7500;57.698;11.986;2022-09-20T07:22:08;102075.94;;;13.53;100.00
14818;BME280;7500;57.698;11.986;2022-09-20T07:24:35;102077.63;;;13.56;100.00
14818;BME280;7500;57.698;11.986;2022-09-20T07:27:04;102076.84;;;13.52;100.00
14818;BME280;7500;57.698;11.986;2022-09-20T07:29:31;102081.13;;;13.56;100.00
14818;BME280;7500;57.698;11.986;2022-09-20T07:31:59;102071.09;;;13.63;100.00
14818;BME280;7500;57.698;11.986;2022-09-20T07:34:26;102081.31;;;13.52;100.00
14818;BME280;7500;57.698;11.986;2022-09-20T07:36:54;102075.22;;;13.50;100.00
14818;BME280;7500;57.698;11.986;2022-09-20T07:39:21;102050.88;;;13.41;100.00
14818;BME280;7500;57.698;11.986;2022-09-20T07:41:48;102074.50;;;13.66;100.00
14818;BME280;7500;57.698;11.986;2022-09-20T07:44:17;102071.50;;;13.74;100.00
14818;BME280;7500;57.698;11.986;2022-09-20T07:46:50;102086.16;;;13.82;100.00
14818;BME280;7500;57.698;11.986;2022-09-20T07:49:18;102085.06;;;13.88;100.00
14818;BME280;7500;57.698;11.986;2022-09-20T07:51:46;102081.47;;;13.89;100.00
14818;BME280;7500;57.698;11.986;2022-09-20T07:54:13;102075.72;;;13.98;100.00
14818;BME280;7500;57.698;11.986;2022-09-20T07:56:40;102085.03;;;14.08;100.00
14818;BME280;7500;57.698;11.986;2022-09-20T07:59:07;102075.69;;;13.99;100.00
14818;BME280;7500;57.698;11.986;2022-09-20T08:01:36;102073.50;;;13.89;100.00
14818;BME280;7500;57.698;11.986;2022-09-20T08:04:04;102084.44;;;14.01;100.00
14818;BME280;7500;57.698;11.986;2022-09-20T08:06:31;102060.94;;;13.92;100.00
14818;BME280;7500;57.698;11.986;2022-09-20T08:09:01;102083.31;;;14.07;100.00
14818;BME280;7500;57.698;11.986;2022-09-20T08:11:28;102082.63;;;14.02;100.00
14818;BME280;7500;57.698;11.986;2022-09-20T08:13:56;102088.59;;;14.07;100.00
14818;BME280;7500;57.698;11.986;2022-09-20T08:16:25;102089.50;;;14.07;100.00
14818;BME280;7500;57.698;11.986;2022-09-20T08:18:54;102096.44;;;14.10;100.00
14818;BME280;7500;57.698;11.986;2022-09-20T08:21:22;102064.84;;;14.04;100.00
14818;BME280;7500;57.698;11.986;2022-09-20T08:23:49;102095.84;;;14.23;100.00
14818;BME280;7500;57.698;11.986;2022-09-20T08:26:18;102102.84;;;14.26;100.00
14818;BME280;7500;57.698;11.986;2022-09-20T08:28:46;102095.50;;;14.31;100.00
14818;BME280;7500;57.698;11.986;2022-09-20T08:31:15;102107.66;;;14.36;100.00
14818;BME280;7500;57.698;11.986;2022-09-20T08:33:44;102110.09;;;14.41;100.00
14818;BME280;7500;57.698;11.986;2022-09-20T08:36:14;102114.56;;;14.40;100.00
14818;BME280;7500;57.698;11.986;2022-09-20T08:38:42;102114.44;;;14.43;100.00
14818;BME280;7500;57.698;11.986;2022-09-20T08:41:11;102104.56;;;14.45;100.00
14818;BME280;7500;57.698;11.986;2022-09-20T08:43:43;102107.19;;;14.47;100.00
14818;BME280;7500;57.698;11.986;2022-09-20T08:46:14;102102.38;;;14.55;100.00
14818;BME280;7500;57.698;11.986;2022-09-20T08:48:43;102113.84;;;14.55;100.00
14818;BME280;7500;57.698;11.986;2022-09-20T08:51:14;102112.94;;;14.56;100.00
14818;BME280;7500;57.698;11.986;2022-09-20T08:53:47;102111.16;;;14.57;100.00
14818;BME280;7500;57.698;11.986;2022-09-20T08:56:14;102110.28;;;14.56;100.00
14818;BME280;7500;57.698;11.986;2022-09-20T08:58:41;102113.66;;;14.60;100.00
14818;BME280;7500;57.698;11.986;2022-09-20T09:01:16;102122.63;;;14.57;100.00
14818;BME280;7500;57.698;11.986;2022-09-20T09:03:44;102108.00;;;14.67;100.00
14818;BME280;7500;57.698;11.986;2022-09-20T09:06:14;102109.56;;;14.71;100.00
14818;BME280;7500;57.698;11.986;2022-09-20T09:08:43;102110.28;;;14.74;100.00
14818;BME280;7500;57.698;11.986;2022-09-20T09:11:19;102114.66;;;14.75;100.00
14818;BME280;7500;57.698;11.986;2022-09-20T09:13:52;102114.75;;;14.74;100.00
14818;BME280;7500;57.698;11.986;2022-09-20T09:16:21;102116.34;;;14.78;100.00
14818;BME280;7500;57.698;11.986;2022-09-20T09:18:49;102116.38;;;14.76;100.00
14818;BME280;7500;57.698;11.986;2022-09-20T09:21:20;102115.03;;;14.86;100.00
14818;BME280;7500;57.698;11.986;2022-09-20T09:23:52;102117.84;;;14.83;100.00
14818;BME280;7500;57.698;11.986;2022-09-20T09:26:26;102128.84;;;14.94;100.00
14818;BME280;7500;57.698;11.986;2022-09-20T09:29:10;102132.91;;;15.01;100.00
14818;BME280;7500;57.698;11.986;2022-09-20T09:31:41;102121.00;;;14.91;100.00
14818;BME280;7500;57.698;11.986;2022-09-20T09:34:22;102117.59;;;14.88;100.00
14818;BME280;7500;57.698;11.986;2022-09-20T09:36:52;102125.94;;;14.99;100.00
14818;BME280;7500;57.698;11.986;2022-09-20T09:39:27;102129.53;;;14.98;100.00
14818;BME280;7500;57.698;11.986;2022-09-20T09:41:55;102128.50;;;15.00;100.00
14818;BME280;7500;57.698;11.986;2022-09-20T09:44:26;102124.44;;;15.12;100.00
14818;BME280;7500;57.698;11.986;2022-09-20T09:46:54;102124.06;;;15.19;100.00
14818;BME280;7500;57.698;11.986;2022-09-20T09:49:22;102129.38;;;15.19;100.00
14818;BME280;7500;57.698;11.986;2022-09-20T09:52:03;102124.59;;;15.27;100.00
14818;BME280;7500;57.698;11.986;2022-09-20T09:54:32;102133.03;;;15.35;100.00
14818;BME280;7500;57.698;11.986;2022-09-20T09:57:15;102123.19;;;15.37;100.00
14818;BME280;7500;57.698;11.986;2022-09-20T10:00:03;102132.09;;;15.36;100.00
14818;BME280;7500;57.698;11.986;2022-09-20T10:03:02;102136.19;;;15.43;100.00
14818;BME280;7500;57.698;11.986;2022-09-20T10:05:40;102131.00;;;15.40;100.00
14818;BME280;7500;57.698;11.986;2022-09-20T10:08:20;102133.53;;;15.43;100.00
14818;BME280;7500;57.698;11.986;2022-09-20T10:10:58;102134.03;;;15.51;100.00
14818;BME280;7500;57.698;11.986;2022-09-20T10:13:33;102145.06;;;15.61;100.00
14818;BME280;7500;57.698;11.986;2022-09-20T10:16:09;102137.78;;;15.64;100.00
14818;BME280;7500;57.698;11.986;2022-09-20T10:18:47;102141.28;;;15.48;100.00
14818;BME280;7500;57.698;11.986;2022-09-20T10:21:28;102137.78;;;15.64;100.00
14818;BME280;7500;57.698;11.986;2022-09-20T10:24:06;102141.22;;;15.66;100.00
14818;BME280;7500;57.698;11.986;2022-09-20T10:26:53;102134.50;;;15.59;100.00
14818;BME280;7500;57.698;11.986;2022-09-20T10:29:36;102148.22;;;15.69;100.00
14818;BME280;7500;57.698;11.986;2022-09-20T10:32:17;102152.41;;;15.56;100.00
14818;BME280;7500;57.698;11.986;2022-09-20T10:35:05;102155.66;;;15.79;100.00
14818;BME280;7500;57.698;11.986;2022-09-20T10:37:45;102156.34;;;15.82;100.00
14818;BME280;7500;57.698;11.986;2022-09-20T10:40:24;102152.91;;;15.64;100.00
14818;BME280;7500;57.698;11.986;2022-09-20T10:43:27;102165.44;;;15.62;100.00
14818;BME280;7500;57.698;11.986;2022-09-20T10:46:05;102159.41;;;15.58;100.00
14818;BME280;7500;57.698;11.986;2022-09-20T10:48:40;102159.41;;;15.58;100.00
14818;BME280;7500;57.698;11.986;2022-09-20T10:51:14;102160.09;;;15.62;100.00
14818;BME280;7500;57.698;11.986;2022-09-20T10:53:49;102165.28;;;15.65;100.00
14818;BME280;7500;57.698;11.986;2022-09-20T10:56:27;102169.66;;;15.66;100.00
14818;BME280;7500;57.698;11.986;2022-09-20T10:59:14;102170.59;;;15.65;100.00
14818;BME280;7500;57.698;11.986;2022-09-20T11:01:53;102166.13;;;15.65;100.00
14818;BME280;7500;57.698;11.986;2022-09-20T11:07:36;102174.22;;;15.81;100.00
14818;BME280;7500;57.698;11.986;2022-09-20T11:10:13;102174.69;;;15.88;100.00
14818;BME280;7500;57.698;11.986;2022-09-20T11:12:47;102172.34;;;15.99;100.00
14818;BME280;7500;57.698;11.986;2022-09-20T11:15:21;102152.38;;;15.91;100.00
14818;BME280;7500;57.698;11.986;2022-09-20T11:17:57;102175.72;;;16.03;100.00
14818;BME280;7500;57.698;11.986;2022-09-20T11:20:29;102184.34;;;16.08;100.00
14818;BME280;7500;57.698;11.986;2022-09-20T11:23:02;102184.97;;;16.13;100.00
14818;BME280;7500;57.698;11.986;2022-09-20T11:25:35;102164.34;;;16.16;100.00
14818;BME280;7500;57.698;11.986;2022-09-20T11:28:10;102183.56;;;16.23;100.00
14818;BME280;7500;57.698;11.986;2022-09-20T11:30:48;102179.00;;;16.25;100.00
14818;BME280;7500;57.698;11.986;2022-09-20T11:33:21;102180.75;;;16.43;100.00
14818;BME280;7500;57.698;11.986;2022-09-20T11:35:52;102174.78;;;16.38;100.00
14818;BME280;7500;57.698;11.986;2022-09-20T11:38:24;102169.06;;;16.45;100.00
14818;BME280;7500;57.698;11.986;2022-09-20T11:40:56;102182.16;;;16.50;100.00
14818;BME280;7500;57.698;11.986;2022-09-20T11:43:27;102181.81;;;16.56;100.00
14818;BME280;7500;57.698;11.986;2022-09-20T11:45:59;102181.50;;;16.62;100.00
14818;BME280;7500;57.698;11.986;2022-09-20T11:48:29;102192.75;;;16.67;100.00
14818;BME280;7500;57.698;11.986;2022-09-20T11:51:14;102185.06;;;16.45;100.00
14818;BME280;7500;57.698;11.986;2022-09-20T11:53:56;102184.50;;;16.56;100.00
14818;BME280;7500;57.698;11.986;2022-09-20T11:56:28;102187.25;;;16.70;100.00
14818;BME280;7500;57.698;11.986;2022-09-20T11:58:59;102185.44;;;17.02;100.00
14818;BME280;7500;57.698;11.986;2022-09-20T12:01:29;102181.28;;;17.74;100.00
14818;BME280;7500;57.698;11.986;2022-09-20T12:03:58;102179.66;;;18.17;100.00
14818;BME280;7500;57.698;11.986;2022-09-20T12:06:29;102189.00;;;18.53;100.00
14818;BME280;7500;57.698;11.986;2022-09-20T12:08:59;102188.91;;;18.68;100.00
14818;BME280;7500;57.698;11.986;2022-09-20T12:11:30;102185.06;;;18.58;100.00
14818;BME280;7500;57.698;11.986;2022-09-20T12:14:03;102153.34;;;18.38;100.00
14818;BME280;7500;57.698;11.986;2022-09-20T12:16:37;102179.44;;;18.77;100.00
14818;BME280;7500;57.698;11.986;2022-09-20T12:19:05;102182.47;;;18.43;100.00
14818;BME280;7500;57.698;11.986;2022-09-20T12:24:35;102159.66;;;18.08;100.00
14818;BME280;7500;57.698;11.986;2022-09-20T12:27:20;102197.31;;;18.48;100.00
14818;BME280;7500;57.698;11.986;2022-09-20T12:30:04;102186.81;;;18.45;100.00
14818;BME280;7500;57.698;11.986;2022-09-20T12:32:47;102195.41;;;18.64;100.00
14818;BME280;7500;57.698;11.986;2022-09-20T12:41:44;102135.50;;;18.53;100.00
14818;BME280;7500;57.698;11.986;2022-09-20T12:44:31;102191.09;;;19.04;100.00
14818;BME280;7500;57.698;11.986;2022-09-20T12:47:01;102191.19;;;19.02;100.00
14818;BME280;7500;57.698;11.986;2022-09-20T12:49:49;102196.63;;;18.73;100.00
14818;BME280;7500;57.698;11.986;2022-09-20T12:52:48;102204.06;;;18.40;100.00
14818;BME280;7500;57.698;11.986;2022-09-20T12:55:32;102198.41;;;18.30;100.00
14818;BME280;7500;57.698;11.986;2022-09-20T12:58:04;102195.47;;;18.35;100.00
14818;BME280;7500;57.698;11.986;2022-09-20T13:00:34;102196.50;;;18.32;100.00
14818;BME280;7500;57.698;11.986;2022-09-20T13:03:22;102203.09;;;18.27;100.00
14818;BME280;7500;57.698;11.986;2022-09-20T13:05:49;102196.78;;;18.28;100.00
14818;BME280;7500;57.698;11.986;2022-09-20T13:08:40;102206.25;;;18.33;100.00
14818;BME280;7500;57.698;11.986;2022-09-20T13:11:11;102205.00;;;18.25;100.00
14818;BME280;7500;57.698;11.986;2022-09-20T13:13:43;102196.19;;;18.23;100.00
14818;BME280;7500;57.698;11.986;2022-09-20T13:16:19;102206.00;;;18.22;100.00
14818;BME280;7500;57.698;11.986;2022-09-20T13:18:56;102198.78;;;18.24;100.00
14818;BME280;7500;57.698;11.986;2022-09-20T13:21:24;102200.81;;;18.35;100.00
14818;BME280;7500;57.698;11.986;2022-09-20T13:23:52;102201.31;;;18.41;100.00
14818;BME280;7500;57.698;11.986;2022-09-20T13:26:25;102199.13;;;18.48;100.00
14818;BME280;7500;57.698;11.986;2022-09-20T13:28:56;102202.19;;;18.70;100.00
14818;BME280;7500;57.698;11.986;2022-09-20T13:31:31;102205.94;;;18.81;100.00
14818;BME280;7500;57.698;11.986;2022-09-20T13:34:18;102206.22;;;18.91;100.00
14818;BME280;7500;57.698;11.986;2022-09-20T13:36:47;102204.94;;;18.40;100.00
14818;BME280;7500;57.698;11.986;2022-09-20T13:39:28;102215.53;;;18.13;100.00
14818;BME280;7500;57.698;11.986;2022-09-20T13:42:01;102212.56;;;17.88;100.00
14818;BME280;7500;57.698;11.986;2022-09-20T13:44:31;102214.59;;;18.14;100.00
14818;BME280;7500;57.698;11.986;2022-09-20T13:46:59;102214.41;;;18.17;100.00
14818;BME280;7500;57.698;11.986;2022-09-20T13:49:31;102213.97;;;18.24;100.00
14818;BME280;7500;57.698;11.986;2022-09-20T13:51:58;102208.09;;;18.33;100.00
14818;BME280;7500;57.698;11.986;2022-09-20T13:54:27;102215.75;;;18.53;100.00
14818;BME280;7500;57.698;11.986;2022-09-20T13:56:56;102193.19;;;18.43;100.00
14818;BME280;7500;57.698;11.986;2022-09-20T13:59:27;102215.34;;;18.45;100.00
14818;BME280;7500;57.698;11.986;2022-09-20T14:01:56;102211.34;;;18.52;100.00
14818;BME280;7500;57.698;11.986;2022-09-20T14:04:24;102211.16;;;18.55;100.00
14818;BME280;7500;57.698;11.986;2022-09-20T14:06:56;102215.75;;;18.53;100.00
14818;BME280;7500;57.698;11.986;2022-09-20T14:09:26;102215.56;;;18.56;100.00
14818;BME280;7500;57.698;11.986;2022-09-20T14:11:54;102211.47;;;18.50;100.00